Huvudsida
METAR-TAF:

METAR-TAF

Flygplatser :

Napakiak, Alaska, USA

latitud: 60-41-25N, longitud: 161-58-43W, höjd: 5 m

Aktuellt väderrapport

Denna rapport gjordes för 10 minuter sedan, klockan 18:56 UTC
Vind 3 kt från syd/sydväst
Temperatur 12°C
Fuktighet 82%
Tryck 1026 hPa
Sikt: 16.1 km
Klar himmel

METAR: PANA 141856Z AUTO 21003KT 10SM CLR 12/09 A3029 RMK AO2 SLP256 T01220094 TSNO

Tid: 11:06 (19:06 UTC)


TAF: saknas

Aktuella väderrapporter och prognoser från 4000 flygplatser (METAR- och TAF-rapporter).

De tillgängliga stationerna syns som gula och röda prickar på kartan.

För musen över prickarna för att se namnen på stationerna.

Klicka sedan för att få väderrapporter och prognoser.

För att ändra kartan: Klicka på de gröna knapparna med ett svart kors på för att zooma in; den gröna knappen med ett streck på för att zooma ut; eller på de gröna pilarna för angränsande kartor.


METAR-TAF: